createdAt,value
2017-09-18T00:00:37.539Z,4.7
2017-09-18T00:01:40.028Z,4.4
2017-09-18T00:02:41.775Z,4.6
2017-09-18T00:03:44.430Z,3.8
2017-09-18T00:04:48.143Z,3.9
2017-09-18T00:05:53.075Z,3.8
2017-09-18T00:06:56.790Z,3.5
2017-09-18T00:07:58.425Z,3.8
2017-09-18T00:09:00.692Z,3.8
2017-09-18T00:10:03.507Z,3.7
2017-09-18T00:11:07.582Z,4.0
2017-09-18T00:12:09.985Z,4.0
2017-09-18T00:13:15.049Z,4.0
2017-09-18T00:14:17.569Z,4.0
2017-09-18T00:15:23.453Z,4.0
2017-09-18T00:16:26.450Z,4.0
2017-09-18T00:17:28.827Z,3.9
2017-09-18T00:18:34.130Z,4.3
2017-09-18T00:19:38.346Z,3.9
2017-09-18T00:20:40.092Z,4.6
2017-09-18T00:21:42.333Z,5.0
2017-09-18T00:22:44.599Z,4.9
2017-09-18T00:23:46.736Z,4.6
2017-09-18T00:24:50.699Z,5.5
2017-09-18T00:25:54.519Z,4.8
2017-09-18T00:26:57.952Z,4.5
2017-09-18T00:28:00.989Z,5.0
2017-09-18T00:29:03.732Z,5.7
2017-09-18T00:30:07.952Z,5.6
2017-09-18T00:31:09.797Z,5.1
2017-09-18T00:32:12.536Z,5.1
2017-09-18T00:33:14.784Z,5.3
2017-09-18T00:34:19.027Z,5.1
2017-09-18T00:35:21.556Z,4.7
2017-09-18T00:36:25.237Z,5.3
2017-09-18T00:37:29.599Z,4.7
2017-09-18T00:38:33.071Z,4.2
2017-09-18T00:39:36.442Z,4.8
2017-09-18T00:40:39.541Z,4.4
2017-09-18T00:41:41.192Z,4.7
2017-09-18T00:42:45.361Z,4.3
2017-09-18T00:43:48.451Z,4.3
2017-09-18T00:44:49.908Z,4.5
2017-09-18T00:45:54.526Z,4.7
2017-09-18T00:46:57.622Z,4.5
2017-09-18T00:48:02.752Z,4.8
2017-09-18T00:49:06.530Z,4.8
2017-09-18T00:50:11.453Z,5.3
2017-09-18T00:51:13.775Z,5.9
2017-09-18T00:52:18.273Z,5.9
2017-09-18T00:53:21.348Z,5.3
2017-09-18T00:54:25.904Z,6.2
2017-09-18T00:55:27.552Z,6.0
2017-09-18T00:56:31.659Z,5.8
2017-09-18T00:57:34.758Z,5.8
2017-09-18T00:58:39.453Z,5.3
2017-09-18T00:59:42.381Z,5.7
2017-09-18T01:00:46.660Z,5.8
2017-09-18T01:01:49.608Z,6.2
2017-09-18T01:02:51.745Z,5.4
2017-09-18T01:03:55.573Z,6.7
2017-09-18T01:04:58.440Z,6.3
2017-09-18T01:06:01.675Z,5.8
2017-09-18T01:07:04.217Z,6.9
2017-09-18T01:08:07.439Z,6.5
2017-09-18T01:09:09.090Z,6.1
2017-09-18T01:10:12.206Z,5.9
2017-09-18T01:11:14.666Z,6.0
2017-09-18T01:12:17.599Z,5.4
2017-09-18T01:13:20.618Z,5.6
2017-09-18T01:14:23.836Z,6.2
2017-09-18T01:15:27.079Z,6.3
2017-09-18T01:16:29.560Z,6.8
2017-09-18T01:17:32.162Z,6.0
2017-09-18T01:18:34.562Z,7.7
2017-09-18T01:19:38.596Z,7.3
2017-09-18T01:20:42.012Z,6.8
2017-09-18T01:21:43.718Z,6.4
2017-09-18T01:22:46.259Z,6.7
2017-09-18T01:23:49.178Z,6.5
2017-09-18T01:24:53.059Z,7.8
2017-09-18T01:25:56.131Z,7.9
2017-09-18T01:27:00.189Z,8.3
2017-09-18T01:28:06.454Z,7.8
2017-09-18T01:29:08.062Z,7.6
2017-09-18T01:30:11.498Z,9.2
2017-09-18T01:31:13.832Z,10.5
2017-09-18T01:32:16.832Z,7.8
2017-09-18T01:33:18.539Z,10.8
2017-09-18T01:34:21.668Z,9.5
2017-09-18T01:35:24.423Z,9.1
2017-09-18T01:36:26.074Z,7.7
2017-09-18T01:37:29.542Z,11.6
2017-09-18T01:38:32.819Z,9.4
2017-09-18T01:39:35.370Z,11.4
2017-09-18T01:40:37.763Z,12.0
2017-09-18T01:41:41.153Z,11.0
2017-09-18T01:42:45.192Z,9.6
2017-09-18T01:43:49.157Z,9.7
2017-09-18T01:44:52.583Z,8.8
2017-09-18T01:45:56.674Z,9.1
2017-09-18T01:47:00.954Z,9.6
2017-09-18T01:48:03.532Z,9.7
2017-09-18T01:49:06.016Z,9.1
2017-09-18T01:50:11.100Z,10.9
2017-09-18T01:51:15.004Z,8.5
2017-09-18T01:52:18.852Z,8.0
2017-09-18T01:53:21.299Z,8.0
2017-09-18T01:54:25.694Z,7.5
2017-09-18T02:01:06.205Z,5.3
2017-09-18T02:02:10.774Z,6.5
2017-09-18T02:03:13.148Z,6.4
2017-09-18T02:04:16.748Z,7.5
2017-09-18T02:05:18.399Z,8.3
2017-09-18T02:06:23.167Z,7.1
2017-09-18T02:07:26.164Z,6.6
2017-09-18T02:08:27.804Z,6.2
2017-09-18T02:09:31.101Z,6.7
2017-09-18T02:10:34.615Z,6.2
2017-09-18T02:11:36.167Z,6.5
2017-09-18T02:12:40.229Z,6.1
2017-09-18T02:13:43.339Z,6.3
2017-09-18T02:14:47.009Z,5.9
2017-09-18T02:15:49.405Z,6.5
2017-09-18T02:16:54.291Z,5.6
2017-09-18T02:17:58.183Z,5.6
2017-09-18T02:19:00.384Z,5.7
2017-09-18T02:20:03.269Z,5.7
2017-09-18T02:21:06.438Z,5.5
2017-09-18T02:22:08.689Z,5.4
2017-09-18T02:23:10.342Z,5.2
2017-09-18T02:24:13.619Z,5.4
2017-09-18T02:25:15.281Z,5.4
2017-09-18T02:26:18.844Z,5.4
2017-09-18T02:27:21.898Z,5.1
2017-09-18T02:28:24.311Z,4.9
2017-09-18T02:29:27.367Z,5.1
2017-09-18T02:30:31.612Z,5.3
2017-09-18T02:31:33.284Z,5.3
2017-09-18T02:32:35.772Z,5.5
2017-09-18T02:33:38.335Z,4.8
2017-09-18T02:34:40.831Z,4.8
2017-09-18T02:35:43.987Z,4.6
2017-09-18T02:36:46.295Z,4.5
2017-09-18T02:37:49.741Z,5.1
2017-09-18T02:38:52.615Z,4.7
2017-09-18T02:39:53.643Z,5.2
2017-09-18T02:40:56.109Z,4.8
2017-09-18T02:42:00.104Z,4.4
2017-09-18T02:43:02.708Z,4.8
2017-09-18T02:44:04.357Z,4.8
2017-09-18T02:45:07.673Z,5.3
2017-09-18T02:46:09.314Z,4.5
2017-09-18T02:47:11.492Z,5.1
2017-09-18T02:48:13.806Z,5.1
2017-09-18T02:49:17.190Z,5.3
2017-09-18T02:50:22.617Z,5.5
2017-09-18T02:51:23.635Z,5.1
2017-09-18T02:52:25.820Z,5.1
2017-09-18T02:53:29.756Z,5.3
2017-09-18T02:54:34.120Z,5.2
2017-09-18T02:55:35.796Z,5.2
2017-09-18T02:56:38.189Z,6.0
2017-09-18T02:57:41.543Z,5.7
2017-09-18T02:58:44.795Z,5.3
2017-09-18T02:59:48.258Z,6.2
2017-09-18T03:00:51.795Z,7.2
2017-09-18T03:01:55.814Z,6.8
2017-09-18T03:02:58.211Z,6.4
2017-09-18T03:04:04.115Z,5.7
2017-09-18T03:05:04.802Z,6.1
2017-09-18T03:06:07.730Z,6.2
2017-09-18T03:07:10.191Z,5.4
2017-09-18T03:08:13.921Z,6.9
2017-09-18T03:09:15.577Z,5.9
2017-09-18T03:10:17.806Z,6.7
2017-09-18T03:11:20.819Z,7.1
2017-09-18T03:12:23.957Z,7.1
2017-09-18T03:13:27.017Z,5.8
2017-09-18T03:14:29.362Z,6.1
2017-09-18T03:15:31.923Z,6.3
2017-09-18T03:16:34.986Z,6.0
2017-09-18T03:17:38.330Z,5.6
2017-09-18T03:18:41.482Z,6.5
2017-09-18T03:19:45.169Z,5.3
2017-09-18T03:20:47.447Z,5.6
2017-09-18T03:21:49.754Z,5.5
2017-09-18T03:22:51.926Z,5.4
2017-09-18T03:23:56.851Z,6.0
2017-09-18T03:25:00.254Z,5.0
2017-09-18T03:26:03.951Z,5.0
2017-09-18T03:27:07.413Z,5.0
2017-09-18T03:28:09.874Z,5.5
2017-09-18T03:29:12.414Z,5.5
2017-09-18T03:30:15.615Z,5.0
2017-09-18T03:31:17.855Z,4.3
2017-09-18T03:32:20.309Z,4.1
2017-09-18T03:33:23.698Z,2.8
2017-09-18T03:34:27.219Z,3.1
2017-09-18T03:35:30.919Z,3.0
2017-09-18T03:36:33.952Z,2.8
2017-09-18T03:37:37.824Z,2.5
2017-09-18T03:38:41.192Z,2.5
2017-09-18T03:39:43.346Z,2.9
2017-09-18T03:40:44.998Z,2.8
2017-09-18T03:41:48.210Z,2.7
2017-09-18T03:42:52.258Z,2.6
2017-09-18T03:43:55.770Z,3.4
2017-09-18T03:44:59.313Z,2.9
2017-09-18T03:46:02.128Z,4.0
2017-09-18T03:47:04.123Z,3.5
2017-09-18T03:48:06.289Z,3.8
2017-09-18T03:49:09.250Z,4.1
2017-09-18T03:50:14.681Z,3.7
2017-09-18T03:51:18.794Z,3.5
2017-09-18T03:52:22.215Z,4.1
2017-09-18T03:53:26.731Z,8.4
2017-09-18T03:54:30.077Z,8.0
2017-09-18T03:55:32.208Z,9.1
2017-09-18T03:56:35.215Z,6.4
2017-09-18T03:57:37.821Z,5.3
2017-09-18T03:58:41.662Z,5.6
2017-09-18T03:59:44.769Z,8.1
2017-09-18T04:00:51.159Z,7.1
2017-09-18T04:01:54.255Z,9.6
2017-09-18T04:02:57.281Z,8.7
2017-09-18T04:04:00.544Z,8.0
2017-09-18T04:05:02.893Z,8.0
2017-09-18T04:06:06.895Z,9.6
2017-09-18T04:07:10.924Z,7.2
2017-09-18T04:08:14.249Z,6.9
2017-09-18T04:09:18.907Z,9.6
2017-09-18T04:10:21.894Z,7.9
2017-09-18T04:11:25.296Z,7.3
2017-09-18T04:12:29.591Z,7.9
2017-09-18T04:13:32.782Z,8.4
2017-09-18T04:14:36.120Z,8.0
2017-09-18T04:15:38.341Z,6.7
2017-09-18T04:16:42.371Z,6.9
2017-09-18T04:17:44.023Z,7.3
2017-09-18T04:18:46.385Z,7.7
2017-09-18T04:19:49.854Z,7.0
2017-09-18T04:20:51.508Z,7.1
2017-09-18T04:21:54.522Z,7.4
2017-09-18T04:22:57.757Z,7.4
2017-09-18T04:24:01.833Z,7.4
2017-09-18T04:25:05.107Z,6.8
2017-09-18T04:26:10.114Z,6.5
2017-09-18T04:27:14.388Z,6.9
2017-09-18T04:28:18.122Z,6.6
2017-09-18T04:29:22.428Z,5.9
2017-09-18T04:30:26.025Z,5.9
2017-09-18T04:31:28.884Z,5.2
2017-09-18T04:32:33.933Z,4.9
2017-09-18T04:33:38.479Z,6.7
2017-09-18T04:34:42.725Z,6.3
2017-09-18T04:35:44.940Z,8.4
2017-09-18T04:36:46.577Z,8.0
2017-09-18T04:37:48.814Z,9.0
2017-09-18T04:38:51.480Z,9.2
2017-09-18T04:39:55.407Z,9.7
2017-09-18T04:41:02.244Z,11.3
2017-09-18T04:42:07.749Z,10.8
2017-09-18T04:43:16.248Z,11.9
2017-09-18T04:44:25.169Z,11.6
2017-09-18T04:45:33.614Z,12.5
2017-09-18T04:46:42.118Z,13.9
2017-09-18T04:47:52.186Z,12.4
2017-09-18T04:48:57.207Z,12.1
2017-09-18T04:50:05.354Z,13.9
2017-09-18T04:51:16.123Z,15.7
2017-09-18T04:52:22.806Z,14.5
2017-09-18T04:53:31.119Z,12.1
2017-09-18T04:54:39.886Z,11.8
2017-09-18T04:55:46.128Z,9.1
2017-09-18T04:56:52.118Z,9.0
2017-09-18T04:58:03.664Z,9.9
2017-09-18T04:59:13.159Z,8.8
2017-09-18T05:00:20.120Z,10.5
2017-09-18T05:01:21.951Z,8.4
2017-09-18T05:02:27.125Z,8.5
2017-09-18T05:03:33.636Z,8.2
2017-09-18T05:04:40.119Z,8.8
2017-09-18T05:05:44.743Z,8.3
2017-09-18T05:06:54.191Z,8.1
2017-09-18T05:08:01.854Z,8.5
2017-09-18T05:09:09.620Z,8.3
2017-09-18T05:10:16.118Z,7.8
2017-09-18T05:11:24.640Z,8.9
2017-09-18T05:12:34.673Z,9.5
2017-09-18T05:13:43.617Z,9.0
2017-09-18T05:14:51.119Z,7.9
2017-09-18T05:15:53.271Z,7.5
2017-09-18T05:16:56.415Z,16.5
2017-09-18T05:18:01.744Z,12.4
2017-09-18T05:19:05.120Z,10.0
2017-09-18T05:20:07.670Z,7.8
2017-09-18T05:21:10.238Z,8.3
2017-09-18T05:22:14.490Z,7.8
2017-09-18T05:23:16.165Z,8.6
2017-09-18T05:24:18.411Z,7.3
2017-09-18T05:25:23.116Z,7.6
2017-09-18T05:26:26.120Z,8.7
2017-09-18T05:27:28.751Z,8.5
2017-09-18T05:28:31.834Z,8.2
2017-09-18T05:29:34.165Z,8.1
2017-09-18T05:30:35.818Z,8.6
2017-09-18T05:31:38.244Z,6.9
2017-09-18T05:32:40.392Z,6.9
2017-09-18T05:33:44.126Z,6.4
2017-09-18T05:34:47.623Z,7.4
2017-09-18T05:35:49.893Z,7.7
2017-09-18T05:36:52.070Z,7.1
2017-09-18T05:37:55.624Z,6.7
2017-09-18T05:38:59.290Z,7.7
2017-09-18T05:40:02.543Z,8.4
2017-09-18T05:41:06.625Z,7.8
2017-09-18T05:42:10.179Z,7.6
2017-09-18T05:43:11.848Z,7.1
2017-09-18T05:44:14.726Z,7.6
2017-09-18T05:45:18.705Z,7.7
2017-09-18T05:46:23.288Z,8.3
2017-09-18T05:47:28.122Z,9.3
2017-09-18T05:48:29.484Z,8.9
2017-09-18T05:49:32.620Z,7.4
2017-09-18T05:50:35.131Z,6.2
2017-09-18T05:51:39.707Z,5.8
2017-09-18T05:52:43.123Z,5.1
2017-09-18T05:53:46.116Z,5.4
2017-09-18T05:54:49.333Z,5.7
2017-09-18T05:55:52.895Z,5.9
2017-09-18T06:01:56.067Z,4.9
2017-09-18T06:02:57.721Z,5.3
2017-09-18T06:04:00.267Z,6.7
2017-09-18T06:05:03.391Z,6.6
2017-09-18T06:06:07.087Z,6.7
2017-09-18T06:07:08.777Z,6.9
2017-09-18T06:08:13.589Z,6.7
2017-09-18T06:09:15.122Z,6.6
2017-09-18T06:10:18.282Z,7.3
2017-09-18T06:11:20.569Z,5.5
2017-09-18T06:12:22.927Z,6.4
2017-09-18T06:13:26.087Z,5.6
2017-09-18T06:14:27.774Z,5.7
2017-09-18T06:15:31.638Z,6.0
2017-09-18T06:16:35.645Z,5.6
2017-09-18T06:17:37.374Z,5.8
2017-09-18T06:18:39.642Z,5.5
2017-09-18T06:19:42.802Z,5.8
2017-09-18T06:20:44.440Z,5.4
2017-09-18T06:21:48.372Z,5.6
2017-09-18T06:22:51.329Z,5.3
2017-09-18T06:23:53.589Z,5.2
2017-09-18T06:24:55.390Z,4.9
2017-09-18T06:25:58.339Z,4.6
2017-09-18T06:27:01.059Z,4.9
2017-09-18T06:28:03.129Z,5.1
2017-09-18T06:29:07.071Z,5.6
2017-09-18T06:30:11.453Z,4.8
2017-09-18T06:31:15.196Z,5.2
2017-09-18T06:32:19.098Z,4.7
2017-09-18T06:33:23.216Z,5.5
2017-09-18T06:34:26.262Z,5.2
2017-09-18T06:35:27.926Z,4.9
2017-09-18T06:36:31.255Z,5.5
2017-09-18T06:37:36.228Z,5.7
2017-09-18T06:38:40.931Z,6.2
2017-09-18T06:39:43.094Z,4.9
2017-09-18T06:40:46.408Z,5.0
2017-09-18T06:41:48.963Z,4.1
2017-09-18T06:42:52.080Z,4.8
2017-09-18T06:43:54.287Z,5.0
2017-09-18T06:44:56.665Z,4.9
2017-09-18T06:45:58.316Z,5.1
2017-09-18T06:47:04.090Z,4.6
2017-09-18T06:48:08.389Z,4.7
2017-09-18T06:49:10.066Z,5.4
2017-09-18T06:50:13.333Z,4.6
2017-09-18T06:51:18.974Z,5.4
2017-09-18T06:52:22.087Z,4.7
2017-09-18T06:53:25.012Z,4.7
2017-09-18T06:54:28.723Z,4.3
2017-09-18T06:55:30.383Z,4.5
2017-09-18T06:56:35.087Z,4.3
2017-09-18T06:57:36.464Z,3.8
2017-09-18T06:58:38.447Z,4.0
2017-09-18T06:59:42.691Z,3.8
2017-09-18T07:00:44.345Z,3.2
2017-09-18T07:01:46.874Z,3.1
2017-09-18T07:02:49.298Z,3.6
2017-09-18T07:03:50.972Z,3.3
2017-09-18T07:04:54.001Z,3.5
2017-09-18T07:05:57.354Z,2.9
2017-09-18T07:07:00.963Z,3.2
2017-09-18T07:08:03.579Z,3.6
2017-09-18T07:09:05.236Z,3.6
2017-09-18T07:10:09.514Z,3.4
2017-09-18T07:11:12.901Z,3.4
2017-09-18T07:12:15.728Z,3.1
2017-09-18T07:13:20.219Z,3.3
2017-09-18T07:14:25.089Z,3.0
2017-09-18T07:15:28.293Z,3.5
2017-09-18T07:16:30.682Z,3.7
2017-09-18T07:17:32.872Z,4.1
2017-09-18T07:18:37.265Z,4.8
2017-09-18T07:19:40.599Z,4.8
2017-09-18T07:20:44.010Z,4.1
2017-09-18T07:21:45.687Z,3.5
2017-09-18T07:22:49.089Z,3.9
2017-09-18T07:23:52.598Z,4.6
2017-09-18T07:24:54.589Z,3.8
2017-09-18T07:25:57.647Z,4.2
2017-09-18T07:27:00.745Z,3.8
2017-09-18T07:28:05.389Z,4.0
2017-09-18T07:29:07.795Z,3.7
2017-09-18T07:30:10.345Z,4.1
2017-09-18T07:31:12.715Z,3.6
2017-09-18T07:32:15.622Z,3.9
2017-09-18T07:33:18.778Z,3.8
2017-09-18T07:34:20.928Z,3.5
2017-09-18T07:35:24.250Z,4.0
2017-09-18T07:36:28.192Z,4.2
2017-09-18T07:37:32.391Z,3.5
2017-09-18T07:38:35.039Z,2.7
2017-09-18T07:39:41.158Z,3.2
2017-09-18T07:40:44.247Z,3.4
2017-09-18T07:41:47.300Z,3.6
2017-09-18T07:42:51.093Z,4.0
2017-09-18T07:43:53.591Z,4.1
2017-09-18T07:44:56.456Z,3.4
2017-09-18T07:45:59.314Z,3.2
2017-09-18T07:47:02.696Z,3.0
2017-09-18T07:48:05.341Z,2.9
2017-09-18T07:49:09.397Z,3.3
2017-09-18T07:50:13.977Z,3.2
2017-09-18T07:51:15.635Z,3.3
2017-09-18T07:52:18.940Z,4.0
2017-09-18T07:53:21.266Z,4.0
2017-09-18T07:54:25.094Z,4.2
2017-09-18T07:55:27.882Z,4.2
2017-09-18T07:56:31.961Z,4.6
2017-09-18T07:57:36.593Z,3.5
2017-09-18T07:58:39.798Z,4.4
2017-09-18T07:59:42.306Z,4.3
2017-09-18T08:00:46.178Z,4.5
2017-09-18T08:01:49.513Z,4.5
2017-09-18T08:02:52.912Z,5.3
2017-09-18T08:03:54.590Z,5.4
2017-09-18T08:04:59.183Z,4.2
2017-09-18T08:06:03.473Z,4.2
2017-09-18T08:07:05.697Z,3.8
2017-09-18T08:08:07.963Z,4.1
2017-09-18T08:09:10.200Z,4.1
2017-09-18T08:10:12.680Z,3.7
2017-09-18T08:11:15.101Z,3.9
2017-09-18T08:12:17.225Z,4.2
2017-09-18T08:13:22.249Z,3.8
2017-09-18T08:14:24.596Z,3.6
2017-09-18T08:15:26.425Z,3.5
2017-09-18T08:16:31.869Z,3.8
2017-09-18T08:17:36.844Z,4.1
2017-09-18T08:18:39.097Z,3.8
2017-09-18T08:19:40.182Z,3.8
2017-09-18T08:20:42.755Z,3.6
2017-09-18T08:21:45.984Z,3.9
2017-09-18T08:22:49.597Z,3.4
2017-09-18T08:23:52.100Z,3.7
2017-09-18T08:24:54.267Z,4.0
2017-09-18T08:25:55.944Z,3.9
2017-09-18T08:26:58.317Z,3.7
2017-09-18T08:28:00.600Z,3.9
2017-09-18T08:29:03.268Z,3.3
2017-09-18T08:30:06.315Z,3.5
2017-09-18T08:31:12.099Z,3.7
2017-09-18T08:32:15.182Z,3.5
2017-09-18T08:33:16.852Z,3.4
2017-09-18T08:34:20.169Z,4.0
2017-09-18T08:35:23.275Z,4.1
2017-09-18T08:36:25.671Z,3.7
2017-09-18T08:37:27.340Z,3.7
2017-09-18T08:38:29.015Z,3.7
2017-09-18T08:39:32.599Z,3.6
2017-09-18T08:40:33.557Z,3.8
2017-09-18T08:41:36.858Z,3.3
2017-09-18T08:42:39.018Z,4.2
2017-09-18T08:43:42.818Z,4.2
2017-09-18T08:44:44.490Z,4.3
2017-09-18T08:45:47.773Z,3.9
2017-09-18T08:46:51.749Z,3.6
2017-09-18T08:47:55.371Z,3.8
2017-09-18T08:48:58.006Z,3.7
2017-09-18T08:50:00.622Z,4.5
2017-09-18T08:51:04.591Z,4.0
2017-09-18T08:52:06.893Z,4.5
2017-09-18T08:53:10.227Z,4.8
2017-09-18T08:54:13.598Z,4.1
2017-09-18T08:55:16.165Z,3.9
2017-09-18T08:56:18.686Z,4.9
2017-09-18T08:57:23.857Z,4.0
2017-09-18T08:58:27.044Z,4.5
2017-09-18T08:59:30.102Z,4.5
2017-09-18T09:00:31.664Z,4.1
2017-09-18T09:01:35.981Z,4.4
2017-09-18T09:02:38.798Z,4.8
2017-09-18T09:03:40.464Z,4.7
2017-09-18T09:04:42.660Z,4.7
2017-09-18T09:05:46.801Z,5.1
2017-09-18T09:06:49.275Z,5.4
2017-09-18T09:07:51.527Z,5.2
2017-09-18T09:08:55.210Z,5.0
2017-09-18T09:09:59.139Z,4.5
2017-09-18T09:11:04.109Z,4.4
2017-09-18T09:12:05.752Z,4.7
2017-09-18T09:13:11.721Z,5.5
2017-09-18T09:14:15.078Z,5.2
2017-09-18T09:15:17.494Z,5.2
2017-09-18T09:16:21.288Z,5.1
2017-09-18T09:17:23.901Z,4.9
2017-09-18T09:18:26.370Z,5.2
2017-09-18T09:19:28.949Z,5.5
2017-09-18T09:20:31.609Z,6.1
2017-09-18T09:21:34.106Z,5.5
2017-09-18T09:22:37.802Z,6.1
2017-09-18T09:23:41.879Z,5.6
2017-09-18T09:24:45.017Z,5.4
2017-09-18T09:25:47.998Z,5.7
2017-09-18T09:26:52.607Z,5.9
2017-09-18T09:27:56.665Z,5.8
2017-09-18T09:28:58.334Z,5.8
2017-09-18T09:30:02.270Z,5.5
2017-09-18T09:31:06.245Z,5.9
2017-09-18T09:32:08.414Z,5.5
2017-09-18T09:33:13.619Z,5.9
2017-09-18T09:34:14.272Z,5.9
2017-09-18T09:35:18.113Z,6.0
2017-09-18T09:36:19.615Z,5.9
2017-09-18T09:37:22.686Z,5.5
2017-09-18T09:38:25.859Z,5.7
2017-09-18T09:39:27.517Z,5.3
2017-09-18T09:40:30.704Z,5.3
2017-09-18T09:41:33.276Z,4.9
2017-09-18T09:42:35.713Z,5.7
2017-09-18T09:43:39.609Z,6.0
2017-09-18T09:44:40.929Z,5.8
2017-09-18T09:45:43.615Z,6.1
2017-09-18T09:46:47.305Z,5.5
2017-09-18T09:47:51.832Z,6.1
2017-09-18T09:48:53.505Z,5.6
2017-09-18T09:49:56.658Z,5.1
2017-09-18T09:50:59.627Z,5.7
2017-09-18T09:52:02.668Z,5.5
2017-09-18T09:53:06.786Z,6.2
2017-09-18T09:54:09.839Z,6.7
2017-09-18T09:55:13.269Z,5.6
2017-09-18T10:01:31.615Z,6.6
2017-09-18T10:02:35.818Z,6.3
2017-09-18T10:03:37.479Z,5.6
2017-09-18T10:04:39.143Z,6.9
2017-09-18T10:05:41.628Z,6.1
2017-09-18T10:06:45.017Z,5.8
2017-09-18T10:07:48.012Z,6.1
2017-09-18T10:08:51.917Z,7.1
2017-09-18T10:09:55.794Z,5.7
2017-09-18T10:10:59.209Z,6.7
2017-09-18T10:12:03.149Z,6.2
2017-09-18T10:13:06.284Z,5.7
2017-09-18T10:14:07.661Z,6.3
2017-09-18T10:15:11.056Z,6.4
2017-09-18T10:16:13.920Z,5.4
2017-09-18T10:17:18.092Z,6.0
2017-09-18T10:18:23.000Z,5.6
2017-09-18T10:19:27.932Z,6.4
2017-09-18T10:20:29.709Z,6.0
2017-09-18T10:21:32.392Z,6.3
2017-09-18T10:22:34.952Z,6.6
2017-09-18T10:23:38.037Z,5.5
2017-09-18T10:24:39.731Z,5.9
2017-09-18T10:25:41.431Z,6.3
2017-09-18T10:26:44.786Z,5.3
2017-09-18T10:27:46.966Z,5.0
2017-09-18T10:28:48.671Z,4.7
2017-09-18T10:29:51.307Z,5.0
2017-09-18T10:30:54.370Z,5.8
2017-09-18T10:31:57.613Z,5.7
2017-09-18T10:33:00.103Z,5.5
2017-09-18T10:34:01.968Z,5.8
2017-09-18T10:35:04.277Z,5.6
2017-09-18T10:36:06.621Z,5.7
2017-09-18T10:37:08.326Z,5.3
2017-09-18T10:38:11.758Z,6.1
2017-09-18T10:39:13.497Z,12.9
2017-09-18T10:40:17.555Z,10.8
2017-09-18T10:41:19.301Z,6.1
2017-09-18T10:42:21.707Z,5.6
2017-09-18T10:43:25.161Z,5.8
2017-09-18T10:44:29.145Z,5.6
2017-09-18T10:45:30.911Z,5.0
2017-09-18T10:46:32.709Z,5.2
2017-09-18T10:47:36.889Z,6.6
2017-09-18T10:48:40.379Z,6.6
2017-09-18T10:49:42.171Z,5.9
2017-09-18T10:50:44.712Z,4.7
2017-09-18T10:51:47.388Z,4.0
2017-09-18T10:52:51.510Z,4.3
2017-09-18T10:53:54.831Z,5.7
2017-09-18T10:54:56.704Z,6.0
2017-09-18T10:55:59.365Z,6.7
2017-09-18T10:57:02.679Z,4.9
2017-09-18T10:58:05.290Z,4.4
2017-09-18T10:59:08.111Z,5.0
2017-09-18T11:00:12.982Z,4.4
2017-09-18T11:01:14.863Z,3.0
2017-09-18T11:02:16.609Z,2.8
2017-09-18T11:03:19.013Z,3.5
2017-09-18T11:04:22.315Z,3.3
2017-09-18T11:05:25.837Z,2.4
2017-09-18T11:06:29.074Z,2.6
2017-09-18T11:07:31.290Z,2.4
2017-09-18T11:08:33.719Z,2.6
2017-09-18T11:09:38.361Z,2.7
2017-09-18T11:10:41.768Z,2.7
2017-09-18T11:11:46.913Z,3.3
2017-09-18T11:12:50.242Z,2.6
2017-09-18T11:13:53.006Z,2.6
2017-09-18T11:14:57.470Z,2.5
2017-09-18T11:16:00.869Z,2.9
2017-09-18T11:17:02.632Z,2.6
2017-09-18T11:18:05.382Z,2.6
2017-09-18T11:19:08.038Z,2.5
2017-09-18T11:20:12.002Z,2.3
2017-09-18T11:21:14.450Z,2.4
2017-09-18T11:22:18.974Z,2.6
2017-09-18T11:23:23.109Z,2.8
2017-09-18T11:24:26.644Z,2.5
2017-09-18T11:25:28.541Z,2.5
2017-09-18T11:26:31.613Z,2.3
2017-09-18T11:27:33.457Z,2.7
2017-09-18T11:28:35.978Z,2.9
2017-09-18T11:29:39.455Z,2.8
2017-09-18T11:30:44.100Z,2.7
2017-09-18T11:31:45.938Z,2.5
2017-09-18T11:32:47.771Z,2.4
2017-09-18T11:33:53.163Z,2.6
2017-09-18T11:34:55.923Z,2.5
2017-09-18T11:35:59.317Z,3.0
2017-09-18T11:37:03.555Z,2.4
2017-09-18T11:38:06.337Z,2.4
2017-09-18T11:39:08.657Z,2.0
2017-09-18T11:40:11.267Z,2.6
2017-09-18T11:41:13.677Z,2.5
2017-09-18T11:42:16.139Z,1.9
2017-09-18T11:43:18.565Z,2.5
2017-09-18T11:44:21.202Z,2.3
2017-09-18T11:45:25.066Z,2.4
2017-09-18T11:46:28.812Z,2.4
2017-09-18T11:47:31.599Z,2.6
2017-09-18T11:48:35.786Z,2.7
2017-09-18T11:49:40.816Z,2.5
2017-09-18T11:50:43.502Z,2.1
2017-09-18T11:51:47.018Z,2.3
2017-09-18T11:52:50.095Z,2.3
2017-09-18T11:53:51.866Z,2.7
2017-09-18T11:54:56.021Z,2.4
2017-09-18T11:55:58.561Z,2.7
2017-09-18T11:57:01.659Z,2.6
2017-09-18T11:58:04.818Z,2.6
2017-09-18T11:59:06.655Z,2.4
2017-09-18T12:00:09.185Z,2.5
2017-09-18T12:01:13.177Z,2.4
2017-09-18T12:02:16.322Z,2.4
2017-09-18T12:03:18.023Z,2.5
2017-09-18T12:04:20.513Z,2.8
2017-09-18T12:05:25.581Z,2.7
2017-09-18T12:06:28.724Z,2.4
2017-09-18T12:07:33.991Z,2.2
2017-09-18T12:08:38.527Z,2.3
2017-09-18T12:09:40.373Z,2.5
2017-09-18T12:10:42.691Z,2.7
2017-09-18T12:11:45.814Z,1.9
2017-09-18T12:12:46.957Z,2.1
2017-09-18T12:13:48.703Z,2.2
2017-09-18T12:14:51.692Z,2.3
2017-09-18T12:15:54.327Z,2.1
2017-09-18T12:16:57.660Z,2.2
2017-09-18T12:17:59.626Z,2.1
2017-09-18T12:19:03.874Z,2.1
2017-09-18T12:20:06.613Z,1.8
2017-09-18T12:21:09.765Z,2.4
2017-09-18T12:22:14.048Z,2.7
2017-09-18T12:23:17.245Z,2.9
2017-09-18T12:24:19.826Z,2.3
2017-09-18T12:25:20.817Z,2.4
2017-09-18T12:26:24.162Z,2.5
2017-09-18T12:27:26.524Z,2.4
2017-09-18T12:28:28.829Z,2.5
2017-09-18T12:29:32.200Z,2.0
2017-09-18T12:30:34.076Z,2.2
2017-09-18T12:31:37.327Z,2.1
2017-09-18T12:32:40.657Z,2.3
2017-09-18T12:33:43.738Z,2.2
2017-09-18T12:34:46.271Z,2.4
2017-09-18T12:35:49.292Z,2.0
2017-09-18T12:36:52.051Z,2.0
2017-09-18T12:37:54.412Z,2.0
2017-09-18T12:38:56.269Z,2.0
2017-09-18T12:39:58.823Z,2.2
2017-09-18T12:41:02.104Z,2.0
2017-09-18T12:42:03.963Z,2.0
2017-09-18T12:43:08.135Z,2.1
2017-09-18T12:44:10.832Z,1.9
2017-09-18T12:45:13.478Z,1.9
2017-09-18T12:46:16.656Z,1.6
2017-09-18T12:47:20.816Z,1.9
2017-09-18T12:48:23.306Z,1.9
2017-09-18T12:49:26.847Z,1.8
2017-09-18T12:50:28.706Z,1.9
2017-09-18T12:51:31.923Z,1.5
2017-09-18T12:52:34.564Z,1.5
2017-09-18T12:53:36.427Z,1.5
2017-09-18T12:54:39.637Z,1.4
2017-09-18T12:55:42.281Z,1.8
2017-09-18T12:56:44.606Z,1.8
2017-09-18T12:57:47.183Z,1.7
2017-09-18T12:58:50.473Z,2.1
2017-09-18T12:59:55.451Z,1.7
2017-09-18T13:00:58.927Z,1.7
2017-09-18T13:02:02.196Z,1.8
2017-09-18T13:03:06.367Z,1.7
2017-09-18T13:04:08.277Z,1.8
2017-09-18T13:05:13.819Z,1.9
2017-09-18T13:06:17.818Z,1.8
2017-09-18T13:07:19.641Z,1.6
2017-09-18T13:08:21.408Z,1.8
2017-09-18T13:09:25.608Z,1.6
2017-09-18T13:10:28.109Z,1.7
2017-09-18T13:11:30.538Z,1.5
2017-09-18T13:12:33.266Z,2.0
2017-09-18T13:13:35.543Z,2.8
2017-09-18T13:14:37.971Z,2.8
2017-09-18T13:15:41.619Z,2.1
2017-09-18T13:16:44.828Z,2.3
2017-09-18T13:17:46.586Z,2.3
2017-09-18T13:18:49.077Z,2.4
2017-09-18T13:19:51.953Z,2.8
2017-09-18T13:20:53.797Z,3.7
2017-09-18T13:21:58.089Z,3.3
2017-09-18T13:23:03.061Z,4.1
2017-09-18T13:24:07.107Z,2.9
2017-09-18T13:25:10.305Z,2.9
2017-09-18T13:26:13.711Z,2.4
2017-09-18T13:27:18.688Z,1.9
2017-09-18T13:28:22.831Z,2.3
2017-09-18T13:29:25.547Z,1.9
2017-09-18T13:30:29.330Z,1.9
2017-09-18T13:31:32.221Z,1.9
2017-09-18T13:32:37.332Z,1.7
2017-09-18T13:33:40.089Z,1.8
2017-09-18T13:34:42.573Z,1.7
2017-09-18T13:35:45.200Z,1.8
2017-09-18T13:36:49.828Z,2.0
2017-09-18T13:37:52.552Z,1.9
2017-09-18T13:38:54.888Z,2.0
2017-09-18T13:39:58.899Z,2.2
2017-09-18T13:41:01.850Z,2.2
2017-09-18T13:42:03.619Z,2.2
2017-09-18T13:43:06.944Z,2.2
2017-09-18T13:44:09.827Z,2.3
2017-09-18T13:45:11.954Z,2.2
2017-09-18T13:46:16.814Z,2.3
2017-09-18T13:47:18.693Z,2.0
2017-09-18T13:48:23.958Z,2.2
2017-09-18T13:49:28.096Z,1.8
2017-09-18T13:50:30.691Z,1.7
2017-09-18T13:51:32.595Z,2.0
2017-09-18T13:52:35.764Z,1.8
2017-09-18T13:53:40.266Z,2.4
2017-09-18T13:54:43.869Z,1.7
2017-09-18T14:01:08.081Z,2.2
2017-09-18T14:02:10.606Z,1.9
2017-09-18T14:03:13.141Z,1.6
2017-09-18T14:04:16.342Z,1.7
2017-09-18T14:05:18.175Z,1.8
2017-09-18T14:06:20.566Z,1.8
2017-09-18T14:07:23.547Z,2.0
2017-09-18T14:08:27.047Z,1.8
2017-09-18T14:09:31.307Z,1.8
2017-09-18T14:10:35.052Z,2.1
2017-09-18T14:11:39.925Z,2.3
2017-09-18T14:12:44.165Z,2.3
2017-09-18T14:13:49.199Z,2.2
2017-09-18T14:14:51.866Z,2.4
2017-09-18T14:15:53.914Z,2.5
2017-09-18T14:16:57.019Z,2.0
2017-09-18T14:17:59.347Z,2.2
2017-09-18T14:19:01.051Z,2.1
2017-09-18T14:20:04.519Z,2.5
2017-09-18T14:21:08.616Z,2.3
2017-09-18T14:22:10.846Z,1.9
2017-09-18T14:23:12.519Z,2.2
2017-09-18T14:24:17.343Z,2.4
2017-09-18T14:25:19.570Z,2.4
2017-09-18T14:26:24.457Z,2.1
2017-09-18T14:27:27.093Z,2.4
2017-09-18T14:28:30.534Z,2.1
2017-09-18T14:29:32.760Z,1.9
2017-09-18T14:30:35.844Z,2.3
2017-09-18T14:31:38.756Z,2.0
2017-09-18T14:32:43.695Z,2.2
2017-09-18T14:33:45.353Z,2.3
2017-09-18T14:34:47.577Z,1.9
2017-09-18T14:35:49.965Z,2.4
2017-09-18T14:36:51.707Z,2.1
2017-09-18T14:37:54.847Z,2.3
2017-09-18T14:38:59.345Z,2.1
2017-09-18T14:40:01.906Z,1.7
2017-09-18T14:41:05.589Z,2.3
2017-09-18T14:42:07.276Z,2.2
2017-09-18T14:43:09.894Z,2.1
2017-09-18T14:44:12.487Z,2.0
2017-09-18T14:45:15.646Z,2.2
2017-09-18T14:46:17.919Z,2.3
2017-09-18T14:47:21.924Z,2.2
2017-09-18T14:48:24.988Z,2.2
2017-09-18T14:49:27.233Z,2.7
2017-09-18T14:50:30.626Z,2.6
2017-09-18T14:51:33.848Z,2.7